createdAt,value
2022-08-09T00:01:52.545Z,97.70
2022-08-09T00:05:03.083Z,97.60
2022-08-09T00:08:31.980Z,97.60
2022-08-09T00:12:02.901Z,97.40
2022-08-09T00:14:57.780Z,97.50
2022-08-09T00:18:12.071Z,97.40
2022-08-09T00:21:14.889Z,97.40
2022-08-09T00:24:19.900Z,97.40
2022-08-09T00:27:22.258Z,97.40
2022-08-09T00:30:26.697Z,97.50
2022-08-09T00:33:42.603Z,97.60
2022-08-09T00:36:52.022Z,97.80
2022-08-09T00:40:09.405Z,97.60
2022-08-09T00:44:14.660Z,97.80
2022-08-09T00:46:57.871Z,97.90
2022-08-09T00:49:59.926Z,97.80
2022-08-09T00:53:08.648Z,97.90
2022-08-09T00:56:14.068Z,97.80
2022-08-09T00:59:31.650Z,98.10
2022-08-09T01:02:48.859Z,98.20
2022-08-09T01:06:17.798Z,98.30
2022-08-09T01:09:54.301Z,98.20
2022-08-09T01:12:59.981Z,98.40
2022-08-09T01:16:05.107Z,98.60
2022-08-09T01:19:57.158Z,98.40
2022-08-09T01:24:02.009Z,98.50
2022-08-09T01:26:57.890Z,98.60
2022-08-09T01:30:04.885Z,98.60
2022-08-09T01:33:10.209Z,98.60
2022-08-09T01:36:15.768Z,98.50
2022-08-09T01:39:20.747Z,98.80
2022-08-09T01:42:26.540Z,99.20
2022-08-09T01:45:33.092Z,99.00
2022-08-09T01:48:49.108Z,99.00
2022-08-09T01:52:07.376Z,99.20
2022-08-09T01:55:11.326Z,99.10
2022-08-09T01:58:16.263Z,99.10
2022-08-09T02:01:20.320Z,99.10
2022-08-09T02:04:33.540Z,99.10
2022-08-09T02:08:39.947Z,99.20
2022-08-09T02:11:02.799Z,99.20
2022-08-09T02:14:26.376Z,99.50
2022-08-09T02:18:01.537Z,99.50
2022-08-09T02:21:08.033Z,99.70
2022-08-09T02:24:26.225Z,99.60
2022-08-09T02:27:43.280Z,99.70
2022-08-09T02:31:08.358Z,99.50
2022-08-09T02:34:41.054Z,99.60
2022-08-09T02:37:45.547Z,99.90
2022-08-09T02:40:48.516Z,99.90
2022-08-09T02:43:55.597Z,99.90
2022-08-09T02:47:00.145Z,99.80
2022-08-09T02:50:11.617Z,99.90
2022-08-09T02:53:26.955Z,99.90
2022-08-09T02:56:32.207Z,99.90
2022-08-09T02:59:37.102Z,99.80
2022-08-09T03:02:58.400Z,99.90
2022-08-09T03:06:06.385Z,99.90
2022-08-09T03:09:12.392Z,99.90
2022-08-09T03:12:15.591Z,99.90
2022-08-09T03:15:18.633Z,99.90
2022-08-09T03:18:31.160Z,99.90
2022-08-09T03:21:39.786Z,99.90
2022-08-09T03:24:52.273Z,99.90
2022-08-09T03:27:56.526Z,99.90
2022-08-09T03:30:59.725Z,99.90
2022-08-09T03:34:12.541Z,99.90
2022-08-09T03:37:55.449Z,99.90
2022-08-09T03:40:38.751Z,99.90
2022-08-09T03:44:03.535Z,99.90
2022-08-09T03:47:09.358Z,99.90
2022-08-09T03:50:12.502Z,99.90
2022-08-09T03:53:16.133Z,99.90
2022-08-09T03:56:18.813Z,99.90
2022-08-09T03:59:27.448Z,99.90
2022-08-09T04:02:45.229Z,99.90
2022-08-09T04:05:55.289Z,99.90
2022-08-09T04:09:02.863Z,99.90
2022-08-09T04:12:29.976Z,99.90
2022-08-09T04:16:18.579Z,99.90
2022-08-09T04:18:57.922Z,99.90
2022-08-09T04:22:01.407Z,99.90
2022-08-09T04:25:04.692Z,99.90
2022-08-09T04:28:07.026Z,99.90
2022-08-09T04:31:12.936Z,99.90
2022-08-09T04:34:19.171Z,99.90
2022-08-09T04:37:45.282Z,99.90
2022-08-09T04:40:54.254Z,99.90
2022-08-09T04:44:07.112Z,99.90
2022-08-09T04:47:13.113Z,99.90
2022-08-09T04:50:15.825Z,99.90
2022-08-09T04:53:21.909Z,99.90
2022-08-09T04:56:26.140Z,99.90
2022-08-09T04:59:30.184Z,99.90
2022-08-09T05:02:32.589Z,99.90
2022-08-09T05:05:51.741Z,99.90
2022-08-09T05:08:59.931Z,99.90
2022-08-09T05:12:03.425Z,99.90
2022-08-09T05:15:11.494Z,99.90
2022-08-09T05:18:38.986Z,99.90
2022-08-09T05:21:47.183Z,99.90
2022-08-09T05:24:57.268Z,99.90
2022-08-09T05:28:03.208Z,99.90
2022-08-09T05:31:09.708Z,99.90
2022-08-09T05:34:17.074Z,99.90
2022-08-09T05:37:19.926Z,99.90
2022-08-09T05:40:22.170Z,99.90
2022-08-09T05:43:29.168Z,99.90
2022-08-09T05:46:34.135Z,99.90
2022-08-09T05:50:25.157Z,99.90
2022-08-09T05:52:58.554Z,99.90
2022-08-09T05:56:01.544Z,99.90
2022-08-09T05:59:04.126Z,99.90
2022-08-09T06:02:06.313Z,99.90
2022-08-09T06:05:09.541Z,99.90
2022-08-09T06:08:11.848Z,99.90
2022-08-09T06:11:17.465Z,99.90
2022-08-09T06:14:19.986Z,99.90
2022-08-09T06:17:22.355Z,99.90
2022-08-09T06:20:24.551Z,99.90
2022-08-09T06:23:55.815Z,99.90
2022-08-09T06:26:54.601Z,99.90
2022-08-09T06:30:04.491Z,99.90
2022-08-09T06:33:30.559Z,99.90
2022-08-09T06:36:34.633Z,99.90
2022-08-09T06:39:58.364Z,99.60
2022-08-09T06:43:01.247Z,99.90
2022-08-09T06:46:07.589Z,99.40
2022-08-09T06:49:16.187Z,98.00
2022-08-09T06:52:25.398Z,97.20
2022-08-09T06:55:32.094Z,96.70
2022-08-09T07:00:46.608Z,95.80
2022-08-09T07:01:59.532Z,96.20
2022-08-09T07:05:03.036Z,95.00
2022-08-09T07:08:05.397Z,94.30
2022-08-09T07:11:08.648Z,93.70
2022-08-09T07:14:18.268Z,92.80
2022-08-09T07:17:29.008Z,92.20
2022-08-09T07:20:43.390Z,91.50
2022-08-09T07:23:56.672Z,90.80
2022-08-09T07:27:00.775Z,90.90
2022-08-09T07:30:03.653Z,88.80
2022-08-09T07:33:12.243Z,87.30
2022-08-09T07:36:19.019Z,84.50
2022-08-09T07:39:42.201Z,84.40
2022-08-09T07:42:55.577Z,82.20
2022-08-09T07:46:02.045Z,79.50
2022-08-09T07:49:05.812Z,78.80
2022-08-09T07:52:16.799Z,78.20
2022-08-09T07:55:19.763Z,76.30
2022-08-09T07:58:26.790Z,75.80
2022-08-09T08:01:34.108Z,74.30
2022-08-09T08:04:37.242Z,74.20
2022-08-09T08:08:43.258Z,73.30
2022-08-09T08:12:07.724Z,73.00
2022-08-09T08:14:24.388Z,72.10
2022-08-09T08:17:53.174Z,70.50
2022-08-09T08:20:50.523Z,70.70
2022-08-09T08:23:55.951Z,68.70
2022-08-09T08:26:59.441Z,67.80
2022-08-09T08:30:03.647Z,67.70
2022-08-09T08:33:06.585Z,65.60
2022-08-09T08:36:14.161Z,64.80
2022-08-09T08:39:39.625Z,64.40
2022-08-09T08:42:47.268Z,62.90
2022-08-09T08:46:03.640Z,62.60
2022-08-09T08:49:19.036Z,59.80
2022-08-09T08:55:48.777Z,62.40
2022-08-09T08:58:54.712Z,62.90
2022-08-09T09:01:57.823Z,63.40
2022-08-09T09:05:03.034Z,60.50
2022-08-09T09:08:29.214Z,62.10
2022-08-09T09:11:33.967Z,61.60
2022-08-09T09:14:42.653Z,61.30
2022-08-09T09:17:48.913Z,60.40
2022-08-09T09:20:56.538Z,59.00
2022-08-09T09:24:10.518Z,60.30
2022-08-09T09:28:06.803Z,60.60
2022-08-09T09:30:57.709Z,61.30
2022-08-09T09:34:18.074Z,61.90
2022-08-09T09:37:32.071Z,60.10
2022-08-09T09:40:46.969Z,59.10
2022-08-09T09:44:12.890Z,57.10
2022-08-09T09:47:16.703Z,58.90
2022-08-09T09:50:42.145Z,60.00
2022-08-09T09:54:21.098Z,58.90
2022-08-09T09:58:00.896Z,60.70
2022-08-09T10:00:52.476Z,60.40
2022-08-09T10:03:59.587Z,61.10
2022-08-09T10:07:09.703Z,58.60
2022-08-09T10:10:12.345Z,60.20
2022-08-09T10:13:42.910Z,60.50
2022-08-09T10:16:56.756Z,58.30
2022-08-09T10:20:02.820Z,58.80
2022-08-09T10:23:17.232Z,58.40
2022-08-09T10:26:22.273Z,58.60
2022-08-09T10:30:11.698Z,58.50
2022-08-09T10:32:52.203Z,59.30
2022-08-09T10:35:55.260Z,60.20
2022-08-09T10:39:14.013Z,59.50
2022-08-09T10:42:26.915Z,60.40
2022-08-09T10:45:31.918Z,59.60
2022-08-09T10:48:47.867Z,60.80
2022-08-09T10:52:26.495Z,60.70
2022-08-09T10:55:55.285Z,60.60
2022-08-09T10:58:54.582Z,62.10
2022-08-09T11:03:15.768Z,61.10
2022-08-09T11:05:25.287Z,59.60
2022-08-09T11:08:47.879Z,58.20
2022-08-09T11:11:58.989Z,57.20
2022-08-09T11:15:24.995Z,58.00
2022-08-09T11:18:45.116Z,59.30
2022-08-09T11:21:56.900Z,57.90
2022-08-09T11:25:11.181Z,57.00
2022-08-09T11:28:38.786Z,59.10
2022-08-09T11:31:58.232Z,58.70
2022-08-09T11:35:02.872Z,57.50
2022-08-09T11:38:17.816Z,60.40
2022-08-09T11:41:21.512Z,62.20
2022-08-09T11:44:44.576Z,63.10
2022-08-09T11:47:49.898Z,64.00
2022-08-09T11:52:49.501Z,62.70
2022-08-09T11:54:28.830Z,64.00
2022-08-09T11:57:47.355Z,65.60
2022-08-09T12:01:08.560Z,67.20
2022-08-09T12:04:23.526Z,68.80
2022-08-09T12:07:41.190Z,69.80
2022-08-09T12:10:56.267Z,70.00
2022-08-09T12:14:09.052Z,70.10
2022-08-09T12:17:28.030Z,71.60
2022-08-09T12:20:43.882Z,72.40
2022-08-09T12:24:06.480Z,73.00
2022-08-09T12:28:59.902Z,73.30
2022-08-09T12:30:43.922Z,73.10
2022-08-09T12:33:58.881Z,73.80
2022-08-09T12:37:22.230Z,74.20
2022-08-09T12:40:28.824Z,74.80
2022-08-09T12:44:04.936Z,75.10
2022-08-09T12:46:55.734Z,75.60
2022-08-09T12:50:17.019Z,75.90
2022-08-09T12:53:44.814Z,75.00
2022-08-09T12:56:54.819Z,74.60
2022-08-09T13:00:25.399Z,73.40
2022-08-09T13:03:57.223Z,72.80
2022-08-09T13:06:57.813Z,72.00
2022-08-09T13:10:04.427Z,71.90
2022-08-09T13:13:11.288Z,71.00
2022-08-09T13:16:17.607Z,71.30
2022-08-09T13:20:07.575Z,70.80
2022-08-09T13:23:04.721Z,70.90
2022-08-09T13:26:38.757Z,70.80
2022-08-09T13:30:03.725Z,71.20
2022-08-09T13:33:24.447Z,71.80
2022-08-09T13:36:41.383Z,72.10
2022-08-09T13:41:55.144Z,72.00
2022-08-09T13:43:10.069Z,72.10
2022-08-09T13:47:14.440Z,72.30
2022-08-09T13:49:39.842Z,72.80
2022-08-09T13:52:59.072Z,72.20
2022-08-09T13:56:01.259Z,71.80
2022-08-09T13:59:04.619Z,71.80
2022-08-09T14:02:06.979Z,71.70
2022-08-09T14:05:56.866Z,71.90
2022-08-09T14:08:36.069Z,71.70
2022-08-09T14:11:47.245Z,71.50
2022-08-09T14:14:53.477Z,71.40
2022-08-09T14:18:18.943Z,71.60
2022-08-09T14:21:22.441Z,71.70
2022-08-09T14:24:32.536Z,71.80
2022-08-09T14:27:56.752Z,71.70
2022-08-09T14:31:04.061Z,71.80
2022-08-09T14:34:08.203Z,71.70
2022-08-09T14:37:10.632Z,71.40
2022-08-09T14:40:13.300Z,71.20
2022-08-09T14:43:15.857Z,71.40
2022-08-09T14:46:57.016Z,71.30
2022-08-09T14:50:01.655Z,70.70
2022-08-09T14:53:12.101Z,70.90
2022-08-09T14:56:14.596Z,70.90
2022-08-09T14:59:17.288Z,71.00
2022-08-09T15:02:19.537Z,70.50
2022-08-09T15:05:22.794Z,70.30
2022-08-09T15:08:25.163Z,70.70
2022-08-09T15:11:27.289Z,70.60
2022-08-09T15:14:33.768Z,70.50
2022-08-09T15:17:42.550Z,70.50
2022-08-09T15:21:56.590Z,70.40
2022-08-09T15:24:13.938Z,70.10
2022-08-09T15:27:20.150Z,70.00
2022-08-09T15:30:56.930Z,70.10
2022-08-09T15:34:18.305Z,69.90
2022-08-09T15:37:36.988Z,69.90
2022-08-09T15:40:43.709Z,70.10
2022-08-09T15:43:46.289Z,69.90
2022-08-09T15:46:48.790Z,70.80
2022-08-09T15:50:04.095Z,70.10
2022-08-09T15:53:17.958Z,69.80
2022-08-09T15:56:30.939Z,69.20
2022-08-09T15:59:37.221Z,68.80
2022-08-09T16:02:39.825Z,69.00
2022-08-09T16:05:53.267Z,68.80
2022-08-09T16:09:00.935Z,68.90
2022-08-09T16:12:03.814Z,68.70
2022-08-09T16:16:04.742Z,68.60
2022-08-09T16:18:30.137Z,69.00
2022-08-09T16:21:35.005Z,68.90
2022-08-09T16:24:37.537Z,68.80
2022-08-09T16:27:47.861Z,68.90
2022-08-09T16:30:58.749Z,68.80
2022-08-09T16:34:03.773Z,69.00
2022-08-09T16:37:07.926Z,69.10
2022-08-09T16:40:20.639Z,68.80
2022-08-09T16:43:40.307Z,69.00
2022-08-09T16:46:55.037Z,69.00
2022-08-09T16:50:29.748Z,69.00
2022-08-09T16:53:20.470Z,69.00
2022-08-09T16:56:25.245Z,69.00
2022-08-09T16:59:27.609Z,69.00
2022-08-09T17:02:39.356Z,69.00
2022-08-09T17:06:09.328Z,68.90
2022-08-09T17:09:43.910Z,69.10
2022-08-09T17:12:28.235Z,69.20
2022-08-09T17:16:00.237Z,69.70
2022-08-09T17:18:54.358Z,69.70
2022-08-09T17:21:57.209Z,69.80
2022-08-09T17:25:10.066Z,70.00
2022-08-09T17:28:14.017Z,70.30
2022-08-09T17:31:16.252Z,70.40
2022-08-09T17:35:02.079Z,70.50
2022-08-09T17:38:11.375Z,72.20
2022-08-09T17:41:07.277Z,73.40
2022-08-09T17:44:42.140Z,73.90
2022-08-09T17:47:32.869Z,74.80
2022-08-09T17:50:56.242Z,75.10
2022-08-09T17:54:02.911Z,75.60
2022-08-09T17:57:08.121Z,76.00
2022-08-09T18:00:44.011Z,76.00
2022-08-09T18:03:45.227Z,76.40
2022-08-09T18:06:54.226Z,76.80
2022-08-09T18:10:04.003Z,77.60
2022-08-09T18:13:38.791Z,77.90
2022-08-09T18:16:31.968Z,78.50
2022-08-09T18:20:54.499Z,78.90
2022-08-09T18:22:57.067Z,78.90
2022-08-09T18:26:02.207Z,79.60
2022-08-09T18:30:36.282Z,79.80
2022-08-09T18:32:27.455Z,80.50
2022-08-09T18:35:58.403Z,80.60
2022-08-09T18:38:51.825Z,80.90
2022-08-09T18:41:54.040Z,81.00
2022-08-09T18:44:56.303Z,81.50
2022-08-09T18:47:59.404Z,81.80
2022-08-09T18:51:02.522Z,82.30
2022-08-09T18:54:12.643Z,83.00
2022-08-09T18:57:22.215Z,83.30
2022-08-09T19:00:26.397Z,84.30
2022-08-09T19:03:29.191Z,84.30
2022-08-09T19:06:51.734Z,84.80
2022-08-09T19:10:13.727Z,84.60
2022-08-09T19:13:22.450Z,85.30
2022-08-09T19:16:36.030Z,85.90
2022-08-09T19:19:41.806Z,86.50
2022-08-09T19:22:50.297Z,87.20
2022-08-09T19:26:04.600Z,88.00
2022-08-09T19:29:17.623Z,88.80
2022-08-09T19:32:29.480Z,89.40
2022-08-09T19:35:57.935Z,89.20
2022-08-09T19:38:56.014Z,90.20
2022-08-09T19:41:58.366Z,90.20
2022-08-09T19:45:00.474Z,90.50
2022-08-09T19:48:03.108Z,90.70
2022-08-09T19:51:05.616Z,91.10
2022-08-09T19:54:08.686Z,91.10
2022-08-09T19:57:11.815Z,91.40
2022-08-09T20:00:16.069Z,91.80
2022-08-09T20:04:11.549Z,92.00
2022-08-09T20:06:40.848Z,92.10
2022-08-09T20:09:47.680Z,92.20
2022-08-09T20:12:51.886Z,92.30
2022-08-09T20:16:38.341Z,92.80
2022-08-09T20:19:46.371Z,92.60
2022-08-09T20:22:44.552Z,92.60
2022-08-09T20:25:52.107Z,93.00
2022-08-09T20:28:55.230Z,93.10
2022-08-09T20:32:33.119Z,93.30
2022-08-09T20:35:20.315Z,93.60
2022-08-09T20:38:30.256Z,93.60
2022-08-09T20:41:44.977Z,94.00
2022-08-09T20:45:04.522Z,94.10
2022-08-09T20:48:13.666Z,94.70
2022-08-09T20:51:25.448Z,94.80
2022-08-09T20:54:29.024Z,95.10
2022-08-09T20:57:32.184Z,94.70
2022-08-09T21:00:35.744Z,95.30
2022-08-09T21:04:07.829Z,95.80
2022-08-09T21:07:11.313Z,95.60
2022-08-09T21:10:15.843Z,96.30
2022-08-09T21:13:18.033Z,95.60
2022-08-09T21:16:21.492Z,95.80
2022-08-09T21:20:17.591Z,95.80
2022-08-09T21:22:55.188Z,96.10
2022-08-09T21:25:59.666Z,96.10
2022-08-09T21:29:02.340Z,96.30
2022-08-09T21:32:18.673Z,96.50
2022-08-09T21:35:22.062Z,96.40
2022-08-09T21:38:31.238Z,96.50
2022-08-09T21:42:05.155Z,96.60
2022-08-09T21:45:00.424Z,96.30
2022-08-09T21:48:03.947Z,96.30
2022-08-09T21:51:14.045Z,96.40
2022-08-09T21:54:16.584Z,96.40
2022-08-09T21:57:37.376Z,96.40
2022-08-09T22:00:41.984Z,96.50
2022-08-09T22:03:48.350Z,96.70
2022-08-09T22:07:02.069Z,96.70
2022-08-09T22:10:09.394Z,96.60
2022-08-09T22:13:11.692Z,96.60
2022-08-09T22:16:14.908Z,96.70
2022-08-09T22:19:57.903Z,96.50
2022-08-09T22:22:40.755Z,96.50
2022-08-09T22:26:05.500Z,96.30
2022-08-09T22:29:10.278Z,96.20
2022-08-09T22:32:12.677Z,96.40
2022-08-09T22:36:00.113Z,96.40
2022-08-09T22:38:54.646Z,96.50
2022-08-09T22:41:57.048Z,96.70
2022-08-09T22:48:05.851Z,97.10
2022-08-09T22:48:34.712Z,97.00
2022-08-09T22:51:43.302Z,97.30
2022-08-09T22:54:51.560Z,97.30
2022-08-09T22:57:59.887Z,96.90
2022-08-09T23:01:05.639Z,97.10
2022-08-09T23:04:08.182Z,97.10
2022-08-09T23:08:21.086Z,96.80
2022-08-09T23:10:52.391Z,96.90
2022-08-09T23:13:54.740Z,96.90
2022-08-09T23:16:56.936Z,97.00
2022-08-09T23:20:06.883Z,96.90
2022-08-09T23:23:10.370Z,96.80
2022-08-09T23:26:12.777Z,96.80
2022-08-09T23:29:15.189Z,97.30
2022-08-09T23:32:17.342Z,97.00
2022-08-09T23:35:19.874Z,97.50
2022-08-09T23:38:22.586Z,97.10
2022-08-09T23:41:28.284Z,97.00
2022-08-09T23:44:31.634Z,97.00
2022-08-09T23:47:33.736Z,97.10
2022-08-09T23:50:35.827Z,97.20
2022-08-09T23:53:38.572Z,97.10
2022-08-09T23:56:54.269Z,97.10
